• pl
  • eng

Awiacja
TAF FT 04:41 20.10.2017
  • WIND
  • SIGNIFICANT EURO
  • SIGNIFICANT
  • SIGMET
  • AIRMET
  • TAF FC
  • TAF FT
  • METAR GG30
  • METAR GG00


TAF EPBY 192330Z 2000/2024 09005KT 9999 BKN025
PROB40 2000/2007 3000 BR
PROB40 TEMPO 2000/2006 1500 BR BKN005
BECMG 2007/2010 15010KT=

TAF EPGD 192330Z 2000/2024 12008KT 9999 BKN025
TEMPO 2000/2010 BKN007
PROB40 2003/2007 3000 BR BKN004=

TAF AMD EPKK 200238Z 2002/2024 VRB02KT 2000 BR BKN002
TEMPO 2003/2006 0200 FG OVC001
BECMG 2007/2009 4000 BR BKN005
TEMPO 2009/2015 07010KT 9999 NSW BKN012
BECMG 2019/2022 0400 FG OVC001=

TAF EPKT 192330Z 2000/2024 VRB02KT 1200 BR NSC
BECMG 2000/2002 0200 FG BKN002
TEMPO 2002/2006 0100 FG OVC001
BECMG 2007/2009 4000 BR BKN005
TEMPO 2009/2015 14010KT 9999 NSW BKN010
BECMG 2018/2020 0200 FG OVC001=

TAF EPLL 192330Z 2000/2024 09007KT 1500 BR BKN005
PROB40 2000/2007 0300 FG OVC001
BECMG 2007/2010 16010KT 9999 BKN025=

TAF EPMO 192330Z 2000/2024 09005KT 9999 BKN020
TEMPO 2000/2008 3000 BR BKN005
BECMG 2008/2010 15010KT=

TAF AMD EPPO 200035Z 2000/2024 13006KT 0500 FG OVC002
TEMPO 2000/2008 0100 FG OVC001
BECMG 2008/2010 3500 BR BKN006
BECMG 2010/2012 8000 FEW014
TEMPO 2018/2024 2500 BR=

TAF EPRZ 192330Z 2000/2024 VRB02KT 0300 FG OVC001
TEMPO 2000/2006 0100 FG
BECMG 2007/2009 4000 BR OVC005
TEMPO 2009/2015 9999 NSW BKN010
BECMG 2020/2023 0300 FG OVC001=

TAF EPSC 192330Z 2000/2024 15010KT CAVOK
PROB40 2000/2006 3000 BR BKN005
BECMG 2018/2020 VRB05KT BKN014
TEMPO 2019/2024 3000 -RA BR BKN007=

TAF EPWA 192330Z 2000/2024 09005KT 9999 BKN025
PROB40 TEMPO 2002/2007 3000 BR BKN010
BECMG 2009/2011 15010KT=

TAF EPWR 192330Z 2000/2024 13005KT 0100 FG OVC001
PROB30 2000/2007 0400 FG
BECMG 2007/2010 CAVOK=
Awiacja.imgw.pl jest pogodowym serwisem informacyjnym
Instytutu Meteorologii i Gospodarki Wodnej Państwowego Instytutu Badawczego.
Copyright IMGW PIB 2009-2011© Wszelkie prawa zastrzeżone.